首页
METAR-TAF:

METAR-TAF

机场 :

郑州新郑国际机场

郑州, 中华人民共和国

纬度: 34-43N, 经度: 113-39E, 海拔: 111米

当前天气观测

该预报发布于28分钟前的00:00 UTC
风速6节,风向,在东南南转西南之间变化
温度 14°C
湿度 63%
气压 1011 hPa
能见度10公里或以上
1500米以下无云,无积雨云

METAR: ZHCC 190000Z 17003MPS 130V210 CAVOK 14/07 Q1011 NOSIG

时间: 08:28 (00:28 UTC)

预报

该预报发布于5小时和18分钟前的19:10 UTC
预报有效从19日的 00点(UTC)到 19日的 24点(UTC)
风速8节,风向
能見度: 7000
成为
从 19日的 08点(UTC)到 19日的 09点(UTC)
能見度: 3000
阴天层高于3000英尺
小雨, 轻雾

TAF: ZHCC 181910Z 1900/1924 18004MPS 7000 NSC TX23/1907Z TN11/1922Z BECMG 1908/1909 3000 -RA BR OVC030

超过4000个机场的气象观测和天气预报(METAR&TAF报告)。

可查询的气象台以黄色和红色小点在地图上表示。

将鼠标移到小点上方,可查看气象台名称。

然后点击查看天气观测和预报。

如需切换地图:点击带黑十字的绿色按钮放大地图;点击带横线的绿色按钮缩小地图;或者点击绿色箭头查看邻近地区的地图。


METAR-TAF: